Terminal Aerodrome Forecast
Issued by NWS

Home | Current Version | Previous Version | Text Only | Print | Product List | Glossary On
Versions: 1 2 3 4 5 6 7 8 9 10 11 12 13 14 15 16 17 18 19 20 21 22 23 24 25 26 27 28 29 30 31
000
FTAK31 PAFA 282320
TAFAUN
TAF
PAUN 282320Z 2900/2924 35008KT P6SM SCT050 OVC060
      TEMPO 2900/2902 4SM -RA BR SCT008 OVC030
     FM290200 35007KT P6SM BKN025 OVC050
     FM290500 36006KT P6SM BKN050=

USA.gov is the U.S. government's official web portal to all federal, state and local government web resources and services.